Time;durP1;ratioP1;P1;durP2;ratioP2;P2;SDS_P1;SDS_P2;PMS_P1;PMS_P2;Temp;Humidity;BMP_temperature;BMP_pressure;BME280_temperature;BME280_humidity;BME280_pressure;Samples;Min_cycle;Max_cycle;Signal;HPM_P1;HPM_P2
2022/03/02 00:02:03;;;;;;;285.90;163.30;;;;;;;-3.33;60.42;101862.92;108920;1273;22062;-78
2022/03/02 00:04:37;;;;;;;295.70;170.40;;;;;;;-3.37;60.55;101859.40;108729;1272;22442;-79
2022/03/02 00:07:18;;;;;;;301.00;169.10;;;;;;;-3.40;60.86;101857.77;108759;1273;22993;-78
2022/03/02 00:09:50;;;;;;;341.20;190.50;;;;;;;-3.40;60.96;101855.54;108416;1276;22005;-78
2022/03/02 00:12:23;;;;;;;344.80;193.20;;;;;;;-3.40;61.04;101851.75;108421;1276;21991;-78
2022/03/02 00:14:54;;;;;;;307.60;175.40;;;;;;;-3.38;61.21;101847.71;108343;1278;23541;-78
2022/03/02 00:17:29;;;;;;;315.70;177.50;;;;;;;-3.35;61.25;101847.98;108420;1275;21994;-78
2022/03/02 00:19:58;;;;;;;;;;;;;;;-3.35;61.21;101850.05;108425;1276;21981;-77
2022/03/02 00:22:34;;;;;;;333.20;177.40;;;;;;;-3.41;61.25;101850.23;108374;1276;22237;-77
2022/03/02 00:25:09;;;;;;;314.80;177.60;;;;;;;-3.44;61.23;101853.22;108351;1276;21988;-78
2022/03/02 00:27:43;;;;;;;328.20;178.40;;;;;;;-3.44;61.18;101853.39;108509;1273;23118;-78
2022/03/02 00:30:12;;;;;;;336.30;189.20;;;;;;;-3.44;61.30;101850.99;108723;1273;22925;-78
2022/03/02 00:32:42;;;;;;;326.50;187.50;;;;;;;-3.46;61.34;101850.52;108756;1273;21981;-78
2022/03/02 00:35:12;;;;;;;336.00;188.80;;;;;;;-3.48;61.40;101846.29;108699;1273;22013;-78
2022/03/02 00:37:42;;;;;;;326.50;188.00;;;;;;;-3.51;61.54;101847.39;108767;1272;21986;-77
2022/03/02 00:40:11;;;;;;;329.90;186.50;;;;;;;-3.55;61.55;101847.16;108749;1273;22756;-78
2022/03/02 00:42:41;;;;;;;336.60;194.80;;;;;;;-3.59;61.62;101845.89;108779;1273;22947;-79
2022/03/02 00:45:13;;;;;;;330.50;187.70;;;;;;;-3.63;61.81;101846.00;108704;1273;22171;-77
2022/03/02 00:47:47;;;;;;;332.20;188.70;;;;;;;-3.66;61.80;101847.27;108695;1273;22355;-77
2022/03/02 00:50:16;;;;;;;318.50;182.80;;;;;;;-3.69;61.78;101840.64;108404;1276;21986;-78
2022/03/02 00:52:57;;;;;;;312.80;181.20;;;;;;;-3.71;61.78;101840.85;108477;1276;21991;-78
2022/03/02 00:55:26;;;;;;;327.60;182.80;;;;;;;-3.72;61.87;101841.92;108463;1275;23610;-77
2022/03/02 00:57:56;;;;;;;310.70;176.10;;;;;;;-3.73;61.89;101840.22;108525;1276;22000;-77
2022/03/02 01:00:26;;;;;;;317.30;176.90;;;;;;;-3.73;62.01;101836.77;108454;1276;23658;-77
2022/03/02 01:02:58;;;;;;;310.80;176.30;;;;;;;-3.73;62.09;101830.77;108472;1276;21998;-77
2022/03/02 01:05:28;;;;;;;305.50;174.00;;;;;;;-3.73;62.09;101828.17;108409;1276;23035;-78
2022/03/02 01:07:58;;;;;;;311.60;175.00;;;;;;;-3.74;62.21;101823.20;108610;1273;22343;-79
2022/03/02 01:10:28;;;;;;;319.10;182.00;;;;;;;-3.75;62.25;101822.71;108787;1273;21991;-79
2022/03/02 01:12:57;;;;;;;308.10;175.80;;;;;;;-3.78;62.36;101815.91;108878;1273;21998;-78
2022/03/02 01:15:31;;;;;;;305.80;173.20;;;;;;;-3.82;62.51;101813.42;108684;1273;21990;-77
2022/03/02 01:18:01;;;;;;;310.20;177.10;;;;;;;-3.87;62.58;101813.55;108547;1273;22308;-78
2022/03/02 01:20:31;;;;;;;307.10;179.20;;;;;;;-3.89;62.82;101813.25;108723;1272;22293;-79
2022/03/02 01:23:03;;;;;;;319.60;174.30;;;;;;;-3.90;62.96;101807.08;108747;1272;22054;-78
2022/03/02 01:25:35;;;;;;;309.80;175.90;;;;;;;-3.90;63.12;101801.58;108778;1272;22009;-79
2022/03/02 01:28:05;;;;;;;319.10;179.80;;;;;;;-3.87;63.26;101797.90;108709;1273;21982;-79
2022/03/02 01:30:35;;;;;;;320.90;183.60;;;;;;;-3.85;63.24;101795.43;108374;1276;23827;-80
2022/03/02 01:33:08;;;;;;;342.10;198.10;;;;;;;-3.83;63.20;101792.80;108449;1276;23052;-79
2022/03/02 01:35:38;;;;;;;359.20;203.00;;;;;;;-3.82;63.22;101792.07;108406;1275;22755;-79
2022/03/02 01:38:07;;;;;;;374.10;214.40;;;;;;;-3.81;63.20;101789.13;108362;1276;22948;-78
2022/03/02 01:40:37;;;;;;;345.90;200.20;;;;;;;-3.80;63.16;101781.87;108392;1276;22067;-78
2022/03/02 01:43:07;;;;;;;361.50;208.20;;;;;;;-3.78;63.39;101777.67;108426;1276;21995;-78
2022/03/02 01:45:37;;;;;;;349.30;201.60;;;;;;;-3.74;63.55;101781.36;108458;1275;21986;-79
2022/03/02 01:48:10;;;;;;;361.10;210.70;;;;;;;-3.72;63.55;101776.48;108474;1273;22004;-78
2022/03/02 01:50:45;;;;;;;345.40;204.60;;;;;;;-3.73;63.52;101769.29;108733;1272;23612;-79
2022/03/02 01:53:15;;;;;;;332.80;194.90;;;;;;;-3.76;63.42;101770.77;108528;1273;24322;-78
2022/03/02 01:55:44;;;;;;;319.10;188.70;;;;;;;-3.81;63.46;101770.70;108683;1273;21984;-78
2022/03/02 01:58:16;;;;;;;325.20;186.30;;;;;;;-3.87;63.42;101768.78;108740;1272;22781;-77
2022/03/02 02:00:45;;;;;;;307.70;177.20;;;;;;;-3.92;63.38;101764.46;108778;1272;22414;-79
2022/03/02 02:03:15;;;;;;;308.70;175.70;;;;;;;-3.98;63.42;101759.46;108738;1272;21982;-78
2022/03/02 02:05:45;;;;;;;300.70;172.90;;;;;;;-4.04;63.43;101755.81;108793;1273;24309;-78
2022/03/02 02:08:15;;;;;;;307.20;172.30;;;;;;;-4.07;63.55;101753.14;108688;1272;23716;-78
2022/03/02 02:10:44;;;;;;;305.40;169.00;;;;;;;-4.08;63.68;101753.67;108654;1273;22004;-78
2022/03/02 02:13:14;;;;;;;290.90;167.20;;;;;;;-4.09;63.64;101749.40;108733;1272;23620;-79
2022/03/02 02:15:44;;;;;;;296.00;166.30;;;;;;;-4.09;63.73;101747.00;108732;1273;24409;-79
2022/03/02 02:18:14;;;;;;;294.00;164.00;;;;;;;-4.08;63.86;101740.45;108732;1273;21994;-79
2022/03/02 02:20:43;;;;;;;285.30;164.60;;;;;;;-4.07;63.94;101736.30;108783;1272;24386;-77
2022/03/02 02:23:18;;;;;;;297.80;164.70;;;;;;;-4.07;63.86;101735.78;108771;1273;23627;-77
2022/03/02 02:25:47;;;;;;;284.10;164.20;;;;;;;-4.10;63.91;101730.88;108556;1273;21985;-78
2022/03/02 02:28:23;;;;;;;288.20;161.60;;;;;;;-4.14;63.94;101725.64;108651;1273;22279;-79
2022/03/02 02:31:03;;;;;;;277.00;159.40;;;;;;;-4.18;64.06;101720.94;108701;1272;21983;-78
2022/03/02 02:33:38;;;;;;;273.10;158.90;;;;;;;-4.23;64.13;101722.61;108668;1272;21991;-78
2022/03/02 02:36:07;;;;;;;271.70;159.30;;;;;;;-4.29;64.22;101728.07;108681;1272;23806;-78
2022/03/02 02:38:40;;;;;;;;;;;;;;;-4.33;64.18;101720.81;108773;1272;21967;-78
2022/03/02 02:41:10;;;;;;;277.60;152.70;;;;;;;-4.42;64.36;101716.04;108711;1271;23654;-78
2022/03/02 02:43:42;;;;;;;263.50;154.00;;;;;;;-4.45;64.37;101714.92;108672;1273;22219;-78
2022/03/02 02:46:14;;;;;;;269.80;153.50;;;;;;;-4.47;64.38;101712.70;108716;1272;21998;-78
2022/03/02 02:48:52;;;;;;;273.30;153.80;;;;;;;-4.47;64.41;101714.61;108713;1273;22017;-77
2022/03/02 02:51:22;;;;;;;268.60;154.50;;;;;;;-4.46;64.50;101713.05;108745;1272;21997;-78
2022/03/02 02:53:54;;;;;;;270.80;153.70;;;;;;;-4.46;64.43;101710.13;108700;1272;21994;-77
2022/03/02 02:56:23;;;;;;;270.90;155.00;;;;;;;-4.47;64.55;101706.36;108759;1272;23030;-79
2022/03/02 02:58:53;;;;;;;259.80;149.50;;;;;;;-4.45;64.71;101701.52;108667;1272;22365;-78
2022/03/02 03:01:26;;;;;;;260.90;146.80;;;;;;;-4.44;64.81;101703.02;108721;1272;23071;-78
2022/03/02 03:03:55;;;;;;;256.10;139.80;;;;;;;-4.43;64.87;101701.10;108569;1272;23160;-78
2022/03/02 03:06:29;;;;;;;255.20;146.20;;;;;;;-4.41;64.99;101699.48;108761;1272;21986;-77
2022/03/02 03:09:02;;;;;;;240.50;145.40;;;;;;;-4.40;64.96;101694.33;108436;1272;21990;-78
2022/03/02 03:11:44;;;;;;;255.40;145.40;;;;;;;-4.41;64.92;101694.68;108657;1272;23837;-77
2022/03/02 03:14:16;;;;;;;250.00;147.70;;;;;;;-4.45;65.05;101694.27;108601;1273;22994;-78
2022/03/02 03:16:46;;;;;;;241.10;146.10;;;;;;;-4.47;65.21;101691.06;108648;1272;23065;-79
2022/03/02 03:19:22;;;;;;;243.20;142.00;;;;;;;-4.50;65.31;101693.88;108373;1276;23866;-79
2022/03/02 03:21:53;;;;;;;240.60;140.70;;;;;;;-4.54;65.43;101697.23;108415;1275;22492;-79
2022/03/02 03:24:32;;;;;;;238.50;146.20;;;;;;;-4.56;65.53;101697.98;108359;1276;22042;-79
2022/03/02 03:27:04;;;;;;;244.00;143.50;;;;;;;-4.58;65.48;101697.70;108360;1276;23045;-79
2022/03/02 03:29:34;;;;;;;233.80;139.80;;;;;;;-4.60;65.67;101696.36;108357;1276;21988;-78
2022/03/02 03:32:07;;;;;;;240.00;138.20;;;;;;;-4.57;65.85;101696.11;108353;1275;21980;-77
2022/03/02 03:34:59;;;;;;;238.10;141.40;;;;;;;-4.54;66.05;101696.73;108322;1279;22421;-77
2022/03/02 03:37:35;;;;;;;229.10;139.10;;;;;;;-4.49;66.24;101693.00;108452;1273;22162;-77
2022/03/02 03:40:11;;;;;;;236.20;134.80;;;;;;;-4.45;66.33;101686.70;108508;1273;22122;-78
2022/03/02 03:42:43;;;;;;;235.00;139.30;;;;;;;-4.40;66.47;101687.95;108439;1275;23013;-78
2022/03/02 03:45:13;;;;;;;;;;;;;;;-4.35;66.61;101691.09;108594;1273;21972;-78
2022/03/02 03:47:43;;;;;;;238.20;134.20;;;;;;;-4.37;66.57;101694.92;108622;1273;23184;-78
2022/03/02 03:50:28;;;;;;;225.50;134.10;;;;;;;-4.39;66.32;101692.91;108444;1273;21988;-77
2022/03/02 03:53:01;;;;;;;234.90;139.50;;;;;;;-4.41;66.31;101692.45;108480;1275;22004;-77
2022/03/02 03:55:31;;;;;;;230.90;136.80;;;;;;;-4.43;66.16;101689.06;108607;1273;23061;-77
2022/03/02 03:58:13;;;;;;;242.00;139.20;;;;;;;-4.45;66.13;101692.55;108375;1275;23091;-77
2022/03/02 04:00:48;;;;;;;239.80;140.80;;;;;;;-4.49;66.19;101691.45;108610;1273;22690;-77
2022/03/02 04:03:24;;;;;;;240.20;142.90;;;;;;;-4.54;66.02;101692.28;108637;1273;21982;-77
2022/03/02 04:06:02;;;;;;;239.40;142.00;;;;;;;-4.59;66.27;101689.13;108445;1273;21992;-77
2022/03/02 04:08:32;;;;;;;246.20;142.90;;;;;;;-4.62;66.56;101687.99;108471;1276;22608;-77
2022/03/02 04:11:03;;;;;;;246.70;152.50;;;;;;;-4.64;66.65;101681.35;108428;1274;22051;-77
2022/03/02 04:13:33;;;;;;;241.00;143.00;;;;;;;-4.66;66.63;101681.56;108494;1276;21984;-77
2022/03/02 04:16:08;;;;;;;224.20;137.80;;;;;;;-4.68;66.54;101676.80;108452;1276;22010;-77
2022/03/02 04:18:40;;;;;;;221.00;129.60;;;;;;;-4.69;66.69;101676.48;108406;1275;21994;-78
2022/03/02 04:21:10;;;;;;;223.20;128.90;;;;;;;-4.67;66.90;101672.48;108364;1276;21988;-78
2022/03/02 04:23:39;;;;;;;219.80;127.90;;;;;;;-4.62;67.12;101674.08;108395;1276;22783;-78
2022/03/02 04:26:18;;;;;;;220.30;131.50;;;;;;;-4.58;67.18;101670.54;108435;1273;24317;-78
2022/03/02 04:28:50;;;;;;;224.00;130.30;;;;;;;-4.57;66.99;101665.52;108714;1273;23719;-79
2022/03/02 04:31:19;;;;;;;227.80;131.00;;;;;;;-4.57;66.93;101663.63;108677;1272;23726;-79
2022/03/02 04:33:51;;;;;;;218.00;133.80;;;;;;;-4.57;66.98;101664.83;108794;1272;22758;-77
2022/03/02 04:36:21;;;;;;;240.20;134.40;;;;;;;-4.58;67.00;101662.45;108622;1273;21990;-76
2022/03/02 04:38:51;;;;;;;232.70;134.30;;;;;;;-4.59;67.01;101660.40;108691;1272;24338;-77
2022/03/02 04:41:26;;;;;;;232.00;136.60;;;;;;;-4.59;67.09;101655.09;108669;1272;22963;-77
2022/03/02 04:43:58;;;;;;;236.40;135.30;;;;;;;-4.59;67.24;101653.70;108677;1273;24384;-78
2022/03/02 04:46:30;;;;;;;233.20;134.70;;;;;;;-4.59;67.28;101648.37;108733;1272;23783;-78
2022/03/02 04:49:10;;;;;;;239.60;133.90;;;;;;;-4.58;67.34;101649.04;108672;1272;24411;-78
2022/03/02 04:51:40;;;;;;;242.10;141.10;;;;;;;-4.59;67.31;101649.06;108717;1273;23692;-79
2022/03/02 04:55:05;;;;;;;236.30;139.30;;;;;;;-4.61;67.34;101652.39;108661;1272;23694;-78
2022/03/02 04:57:05;;;;;;;237.40;137.50;;;;;;;-4.64;67.37;101650.73;108608;1273;22007;-78
2022/03/02 04:59:38;;;;;;;240.10;137.40;;;;;;;-4.66;67.56;101647.02;108661;1272;24316;-78
2022/03/02 05:02:11;;;;;;;247.40;139.20;;;;;;;-4.69;67.58;101648.45;108681;1272;21996;-77
2022/03/02 05:04:44;;;;;;;248.20;139.70;;;;;;;-4.72;67.62;101648.54;108758;1272;22322;-78
2022/03/02 05:07:24;;;;;;;248.90;135.60;;;;;;;-4.75;67.62;101647.39;108365;1278;22078;-78
2022/03/02 05:09:54;;;;;;;265.10;140.00;;;;;;;-4.77;67.57;101644.36;108325;1278;22173;-79
2022/03/02 05:12:26;;;;;;;248.50;141.00;;;;;;;-4.79;67.55;101642.01;108334;1278;24189;-79
2022/03/02 05:14:59;;;;;;;243.80;137.40;;;;;;;-4.80;67.65;101644.45;108029;1281;23654;-79
2022/03/02 05:17:35;;;;;;;246.40;138.40;;;;;;;-4.81;67.59;101640.17;108092;1281;22142;-79
2022/03/02 05:20:11;;;;;;;239.80;139.00;;;;;;;-4.81;67.67;101641.02;108081;1280;23619;-79
2022/03/02 05:22:44;;;;;;;248.80;139.10;;;;;;;-4.81;67.74;101643.41;108021;1279;21992;-79
2022/03/02 05:25:24;;;;;;;248.60;139.90;;;;;;;-4.81;67.80;101644.80;108338;1273;23645;-77
2022/03/02 05:27:54;;;;;;;250.30;143.10;;;;;;;-4.81;67.80;101648.59;108405;1276;23731;-77
2022/03/02 05:30:27;;;;;;;250.70;140.00;;;;;;;-4.80;67.83;101652.34;108626;1273;23142;-78
2022/03/02 05:32:56;;;;;;;265.60;148.20;;;;;;;-4.80;67.83;101645.80;108666;1272;22962;-78
2022/03/02 05:35:25;;;;;;;267.70;146.90;;;;;;;-4.80;67.86;101647.88;108763;1273;22014;-77
2022/03/02 05:37:55;;;;;;;262.80;148.20;;;;;;;-4.79;67.87;101649.23;108595;1273;21985;-78
2022/03/02 05:40:30;;;;;;;267.30;150.60;;;;;;;-4.78;67.92;101646.61;108767;1272;22042;-78
2022/03/02 05:42:59;;;;;;;282.80;158.10;;;;;;;-4.77;68.04;101645.56;108714;1273;22210;-78
2022/03/02 05:45:29;;;;;;;268.90;152.70;;;;;;;-4.77;68.11;101645.91;108719;1272;23050;-80
2022/03/02 05:48:01;;;;;;;266.50;150.80;;;;;;;-4.77;68.25;101648.31;108759;1272;23075;-78
2022/03/02 05:50:31;;;;;;;272.80;158.90;;;;;;;-4.78;68.32;101652.97;108540;1273;24369;-79
2022/03/02 05:53:02;;;;;;;284.10;164.70;;;;;;;-4.78;68.40;101653.66;108685;1273;23082;-78
2022/03/02 05:55:31;;;;;;;274.40;155.10;;;;;;;-4.77;68.47;101652.78;108786;1270;23084;-80
2022/03/02 05:58:02;;;;;;;273.20;152.70;;;;;;;-4.74;68.44;101656.84;108489;1276;21995;-81
2022/03/02 06:00:32;;;;;;;274.00;156.60;;;;;;;-4.70;68.56;101654.85;108197;1279;22027;-80
2022/03/02 06:03:03;;;;;;;277.10;155.50;;;;;;;-4.66;68.66;101656.29;108497;1279;23093;-79
2022/03/02 06:05:35;;;;;;;266.20;154.90;;;;;;;-4.60;68.71;101655.63;108189;1279;22362;-80
2022/03/02 06:08:10;;;;;;;275.20;151.30;;;;;;;-4.54;68.81;101655.64;108011;1284;22031;-80
2022/03/02 06:10:46;;;;;;;280.40;156.40;;;;;;;-4.47;68.93;101654.44;107978;1284;22001;-80
2022/03/02 06:13:20;;;;;;;263.60;150.40;;;;;;;-4.39;68.92;101650.44;108100;1284;23765;-80
2022/03/02 06:15:55;;;;;;;267.80;148.60;;;;;;;-4.33;68.91;101651.99;108009;1281;22020;-80
2022/03/02 06:18:27;;;;;;;250.90;145.70;;;;;;;-4.26;68.97;101647.32;107948;1284;21998;-79
2022/03/02 06:21:01;;;;;;;263.70;146.80;;;;;;;-4.19;69.04;101648.86;108032;1283;22794;-79
2022/03/02 06:23:50;;;;;;;253.10;147.20;;;;;;;-4.11;69.13;101652.59;108085;1283;22027;-80
2022/03/02 06:26:29;;;;;;;264.00;148.30;;;;;;;-4.02;69.18;101651.48;108230;1275;22092;-79
2022/03/02 06:28:59;;;;;;;268.50;153.40;;;;;;;-3.93;69.30;101647.80;108395;1276;21999;-80
2022/03/02 06:31:50;;;;;;;260.20;153.50;;;;;;;-3.85;69.34;101647.73;108729;1276;22011;-80
2022/03/02 06:34:19;;;;;;;246.50;146.10;;;;;;;-3.75;69.29;101645.06;108100;1283;22012;-79
2022/03/02 06:36:52;;;;;;;259.70;150.80;;;;;;;-3.68;69.29;101646.05;108099;1278;24052;-80
2022/03/02 06:39:22;;;;;;;;;;;;;;;-3.61;69.32;101644.30;108304;1278;21975;-80
2022/03/02 06:42:11;;;;;;;240.50;138.40;;;;;;;-3.60;69.49;101645.12;108267;1279;23640;-79
2022/03/02 06:45:16;;;;;;;257.40;143.50;;;;;;;-3.55;69.62;101643.08;108430;1279;22016;-80
2022/03/02 06:47:57;;;;;;;;;;;;;;;-3.48;69.67;101638.90;107863;1284;21995;-79
2022/03/02 06:50:34;;;;;;;262.80;151.10;;;;;;;-3.45;69.88;101642.80;107748;1286;24379;-83
2022/03/02 06:53:11;;;;;;;238.60;145.40;;;;;;;-3.39;69.92;101643.28;107963;1282;22081;-80
2022/03/02 06:55:46;;;;;;;;;;;;;;;-3.28;69.92;101641.06;107830;1279;23619;-80
2022/03/02 06:58:20;;;;;;;240.20;145.80;;;;;;;-3.22;70.07;101643.98;108075;1279;23747;-76
2022/03/02 07:00:53;;;;;;;255.60;158.00;;;;;;;-3.09;70.29;101641.48;108115;1279;22000;-77
2022/03/02 07:03:38;;;;;;;266.30;170.50;;;;;;;-2.91;70.23;101638.31;108136;1279;22470;-81
2022/03/02 07:06:21;;;;;;;273.90;174.90;;;;;;;-2.72;70.15;101633.21;108178;1279;24425;-78
2022/03/02 07:09:03;;;;;;;273.20;176.50;;;;;;;-2.55;69.94;101631.95;108307;1279;21989;-79
2022/03/02 07:11:34;;;;;;;275.20;179.40;;;;;;;-2.45;69.72;101630.59;108324;1273;250429;-78
2022/03/02 07:14:13;;;;;;;283.60;184.40;;;;;;;-2.32;69.77;101630.13;108530;1273;23757;-79
2022/03/02 07:16:45;;;;;;;264.00;177.80;;;;;;;-2.16;69.94;101627.95;108305;1279;22452;-80
2022/03/02 07:19:19;;;;;;;269.50;178.80;;;;;;;-1.98;69.99;101625.45;108506;1276;24307;-78
2022/03/02 07:21:50;;;;;;;238.30;159.30;;;;;;;-1.83;69.80;101623.69;108184;1279;22029;-78
2022/03/02 07:24:30;;;;;;;237.70;156.80;;;;;;;-1.69;69.74;101623.14;108494;1276;21995;-79
2022/03/02 07:27:04;;;;;;;327.40;203.60;;;;;;;-1.54;69.82;101613.60;108192;1279;22090;-79
2022/03/02 07:29:36;;;;;;;278.50;180.90;;;;;;;-1.41;69.62;101604.99;108610;1279;22022;-79
2022/03/02 07:32:08;;;;;;;339.20;219.70;;;;;;;-1.28;69.66;101605.13;108156;1279;23829;-77
2022/03/02 07:34:42;;;;;;;331.20;217.80;;;;;;;-1.09;69.68;101601.95;108474;1273;23819;-78
2022/03/02 07:37:12;;;;;;;343.20;223.70;;;;;;;-0.88;69.63;101596.95;108557;1273;24192;-78
2022/03/02 07:39:46;;;;;;;372.00;234.10;;;;;;;-0.60;69.92;101591.96;108199;1279;24590;-79
2022/03/02 07:42:16;;;;;;;348.10;226.10;;;;;;;-0.19;70.54;101586.86;108072;1280;22079;-79
2022/03/02 07:44:49;;;;;;;329.00;216.10;;;;;;;0.22;70.33;101587.08;107697;1284;23064;-78
2022/03/02 07:47:20;;;;;;;302.20;201.30;;;;;;;0.66;70.20;101581.89;107567;1287;23079;-79
2022/03/02 07:49:58;;;;;;;312.70;204.40;;;;;;;1.08;69.51;101577.93;107639;1288;23084;-80
2022/03/02 07:52:30;;;;;;;314.00;207.80;;;;;;;1.39;68.32;101572.88;107504;1288;23775;-81
2022/03/02 07:55:10;;;;;;;299.30;199.80;;;;;;;1.64;67.29;101571.27;107862;1287;22099;-80
2022/03/02 07:57:55;;;;;;;274.30;183.30;;;;;;;1.81;65.98;101572.95;107684;1284;22773;-80
2022/03/02 08:00:28;;;;;;;272.60;185.00;;;;;;;1.98;65.39;101576.72;108044;1279;21983;-78
2022/03/02 08:03:00;;;;;;;269.90;182.80;;;;;;;2.22;65.16;101578.38;108292;1276;23061;-78
2022/03/02 08:05:43;;;;;;;;;;;;;;;;;;;;;
2022/03/02 08:08:31;;;;;;;206.50;140.80;;;;;;;3.07;65.31;101575.83;108644;1273;23159;-79
2022/03/02 08:11:05;;;;;;;213.70;143.10;;;;;;;3.55;64.58;101573.35;108647;1273;23710;-78
2022/03/02 08:13:41;;;;;;;211.20;144.90;;;;;;;4.00;64.09;101573.71;108659;1270;22596;-79
2022/03/02 08:16:13;;;;;;;203.70;139.20;;;;;;;4.50;63.59;101572.46;108567;1270;22752;-79
2022/03/02 08:18:45;;;;;;;187.00;123.20;;;;;;;4.96;62.33;101574.39;108481;1273;22002;-79
2022/03/02 08:21:26;;;;;;;159.90;110.60;;;;;;;5.32;60.52;101573.55;108427;1273;22010;-79
2022/03/02 08:24:03;;;;;;;131.60;92.90;;;;;;;5.71;59.59;101568.11;108767;1273;22001;-81
2022/03/02 08:26:36;;;;;;;107.40;73.40;;;;;;;6.10;58.47;101573.39;108548;1274;22005;-79
2022/03/02 08:29:11;;;;;;;64.30;49.00;;;;;;;6.43;56.68;101571.03;108505;1273;21997;-79
2022/03/02 08:31:50;;;;;;;78.00;55.50;;;;;;;6.67;54.59;101570.38;108726;1273;23087;-78
2022/03/02 08:34:21;;;;;;;64.30;47.70;;;;;;;6.82;52.74;101567.14;108540;1273;22051;-78
2022/03/02 08:36:59;;;;;;;144.50;77.30;;;;;;;6.98;51.91;101562.61;108439;1276;23760;-78
2022/03/02 08:39:29;;;;;;;410.70;206.80;;;;;;;7.20;51.00;101558.33;108081;1284;23630;-84
2022/03/02 08:41:59;;;;;;;149.90;80.10;;;;;;;7.29;49.48;101560.23;107949;1281;23097;-77
2022/03/02 08:44:35;;;;;;;97.60;62.10;;;;;;;7.30;48.38;101561.59;108067;1281;22087;-81
2022/03/02 08:47:07;;;;;;;51.10;39.40;;;;;;;7.48;48.45;101561.48;108216;1281;22074;-79
2022/03/02 08:49:36;;;;;;;;;;;;;;;7.68;47.58;101562.88;108048;1281;23176;-81
2022/03/02 08:52:18;;;;;;;43.10;34.00;;;;;;;7.78;46.95;101558.82;107997;1281;22807;-79
2022/03/02 08:54:48;;;;;;;38.70;30.60;;;;;;;7.97;46.66;101551.98;108150;1281;22101;-79
2022/03/02 08:57:20;;;;;;;55.00;37.40;;;;;;;8.18;45.77;101549.15;107946;1281;22033;-77
2022/03/02 08:59:58;;;;;;;70.60;43.30;;;;;;;8.32;44.69;101546.39;108067;1281;22415;-80
2022/03/02 09:02:37;;;;;;;158.80;91.00;;;;;;;8.43;44.01;101541.71;108445;1278;22020;-82
2022/03/02 09:05:12;;;;;;;51.40;35.40;;;;;;;8.59;43.55;101541.11;108673;1273;21995;-80
2022/03/02 09:07:45;;;;;;;61.00;37.10;;;;;;;8.75;42.87;101539.61;108832;1273;21982;-82
2022/03/02 09:10:15;;;;;;;31.50;21.90;;;;;;;8.93;42.24;101538.83;108588;1278;22127;-74
2022/03/02 09:12:44;;;;;;;23.40;19.70;;;;;;;9.02;41.19;101544.00;108323;1278;23713;-75
2022/03/02 09:15:13;;;;;;;21.90;16.90;;;;;;;9.06;40.38;101547.35;108358;1278;23002;-77
2022/03/02 09:17:43;;;;;;;22.30;15.40;;;;;;;9.21;40.21;101544.21;108378;1278;22010;-75
2022/03/02 09:20:14;;;;;;;36.60;22.80;;;;;;;9.26;39.17;101540.92;108362;1277;21999;-79
2022/03/02 09:22:47;;;;;;;37.30;27.00;;;;;;;9.16;37.76;101536.88;108059;1282;23733;-77
2022/03/02 09:25:18;;;;;;;21.40;17.80;;;;;;;9.17;38.39;101538.55;108574;1279;24248;-83
2022/03/02 09:27:51;;;;;;;21.60;16.10;;;;;;;9.45;38.68;101534.77;108396;1280;22147;-81
2022/03/02 09:30:20;;;;;;;16.60;14.80;;;;;;;9.62;37.40;101533.46;108470;1280;23095;-80
2022/03/02 09:32:55;;;;;;;18.90;14.90;;;;;;;9.64;36.84;101534.90;108413;1280;22101;-80
2022/03/02 09:35:27;;;;;;;19.00;13.50;;;;;;;9.64;36.24;101530.14;108709;1276;21999;-80
2022/03/02 09:37:56;;;;;;;27.30;19.50;;;;;;;9.72;36.05;101529.63;108403;1276;23047;-79
2022/03/02 09:40:29;;;;;;;14.90;11.50;;;;;;;9.63;35.37;101529.86;108366;1275;23687;-80
2022/03/02 09:43:07;;;;;;;13.50;10.00;;;;;;;9.53;35.27;101523.21;108650;1279;21984;-82
2022/03/02 09:45:40;;;;;;;19.20;14.20;;;;;;;9.46;34.79;101521.66;108548;1279;22052;-80
2022/03/02 09:48:27;;;;;;;19.70;14.30;;;;;;;9.48;34.91;101519.77;108275;1283;22001;-80
2022/03/02 09:51:05;;;;;;;25.20;17.90;;;;;;;9.55;34.80;101518.45;108424;1282;22002;-81
2022/03/02 09:53:36;;;;;;;40.90;28.90;;;;;;;9.56;34.44;101514.81;108241;1282;22224;-83
2022/03/02 09:56:06;;;;;;;19.40;14.50;;;;;;;9.64;34.42;101517.48;108156;1282;23083;-80
2022/03/02 09:58:39;;;;;;;19.20;13.90;;;;;;;9.77;34.16;101515.99;107893;1276;24400;-80
2022/03/02 10:01:27;;;;;;;20.70;14.60;;;;;;;9.92;33.73;101511.91;108245;1281;23085;-79
2022/03/02 10:04:21;;;;;;;19.90;14.90;;;;;;;10.07;33.56;101510.88;108056;1279;21991;-80
2022/03/02 10:07:26;;;;;;;27.00;18.50;;;;;;;10.19;33.04;101509.44;108066;1276;23645;-79
2022/03/02 10:10:23;;;;;;;21.30;17.70;;;;;;;10.04;32.68;101502.35;108380;1275;21984;-80
2022/03/02 10:13:16;;;;;;;24.90;17.90;;;;;;;10.06;33.08;101496.53;108444;1276;22003;-79
2022/03/02 10:16:28;;;;;;;29.90;21.30;;;;;;;10.17;32.66;101494.66;108547;1275;22092;-78
2022/03/02 10:19:44;;;;;;;23.80;16.70;;;;;;;10.27;32.51;101494.70;108406;1276;22051;-79
2022/03/02 10:22:50;;;;;;;22.90;16.40;;;;;;;10.42;32.08;101494.23;108244;1276;22765;-79
2022/03/02 10:26:13;;;;;;;33.20;22.00;;;;;;;10.99;32.51;101487.59;108538;1273;22052;-80
2022/03/02 10:29:30;;;;;;;37.20;22.30;;;;;;;11.76;32.18;101481.37;108783;1273;23017;-78
2022/03/02 10:32:23;;;;;;;24.80;17.50;;;;;;;12.55;31.37;101480.88;108677;1273;21985;-79
2022/03/02 10:35:37;;;;;;;17.50;13.30;;;;;;;13.51;30.38;101481.73;108568;1273;21993;-80
2022/03/02 10:39:41;;;;;;;13.20;11.10;;;;;;;14.44;29.50;101475.05;108303;1276;22788;-80
2022/03/02 10:42:30;;;;;;;15.60;12.30;;;;;;;15.42;28.05;101469.27;108019;1282;24443;-79
2022/03/02 10:45:51;;;;;;;18.30;13.00;;;;;;;16.38;27.49;101464.45;108059;1282;21993;-78
2022/03/02 10:48:46;;;;;;;19.60;16.00;;;;;;;17.51;26.50;101465.33;108294;1282;22003;-78
2022/03/02 10:51:24;;;;;;;20.00;15.70;;;;;;;17.87;24.93;101466.11;108005;1279;22937;-79
2022/03/02 10:54:03;;;;;;;21.00;15.00;;;;;;;18.49;25.10;101468.02;107592;1287;22870;-78
2022/03/02 10:56:51;;;;;;;17.00;14.40;;;;;;;19.30;24.27;101467.06;108038;1281;22018;-78
2022/03/02 10:59:38;;;;;;;15.00;12.80;;;;;;;19.93;23.06;101462.61;108376;1281;23632;-79
2022/03/02 11:02:21;;;;;;;14.00;12.50;;;;;;;20.65;22.47;101455.17;107713;1284;22009;-79
2022/03/02 11:04:59;;;;;;;20.80;18.60;;;;;;;21.26;20.83;101455.40;107884;1284;22013;-80
2022/03/02 11:07:35;;;;;;;21.10;18.90;;;;;;;21.37;19.56;101450.94;107497;1284;22004;-80
2022/03/02 11:10:20;;;;;;;15.50;13.80;;;;;;;21.40;19.40;101451.89;107674;1284;23690;-79
2022/03/02 11:13:28;;;;;;;16.30;14.10;;;;;;;21.68;19.94;101447.25;107905;1278;22121;-78
2022/03/02 11:16:22;;;;;;;19.10;13.00;;;;;;;22.11;19.50;101448.94;108320;1279;22020;-80
2022/03/02 11:19:27;;;;;;;16.60;13.30;;;;;;;22.07;18.27;101447.21;108062;1278;23006;-79
2022/03/02 11:22:28;;;;;;;20.40;14.60;;;;;;;21.03;17.86;101439.29;108478;1276;22344;-78
2022/03/02 11:25:17;;;;;;;19.10;14.80;;;;;;;19.48;18.55;101428.27;108136;1278;22162;-78
2022/03/02 11:28:29;;;;;;;19.70;14.50;;;;;;;17.95;19.30;101425.72;108338;1278;22030;-80
2022/03/02 11:31:31;;;;;;;17.70;14.00;;;;;;;16.47;19.47;101421.33;108004;1284;22007;-80
2022/03/02 11:34:15;;;;;;;16.10;14.20;;;;;;;15.05;20.10;101421.54;108374;1279;23702;-80
2022/03/02 11:36:58;;;;;;;19.80;14.90;;;;;;;13.91;20.95;101416.21;108291;1278;22000;-80